PWSweather.com
Personal Weather Stations
Station Observations
MACKBIG
Historic Main Street, Unionville, ON L3R6A5

Historic Main StreetUnionville, ON L3R6A5

Lat: 43.875506, Lon: -79.312903

Elevation: 590

Station Type: Davis VP2 + 6163

http://www.mackweather.com

High Low Average
Temperature 38.4°F3.6°C 32.5°F0.3°C 36.3°F2.4°C
Dew Point 36.4°F2.4°C 31.2°F-0.4°C 34.4°F1.3°C
Winds Calm Calm Calm Calm Calm NECalm NE
Wind Gusts -- -- --
Humidity 95% 87% 93%
Pressure 30.24 in1024.0 mb 30.18 in1022.0 mb -
Precipitation 0.01 in0.3 mm - -
Hour Temp Dew Point Humidity Winds Wind Gusts Pressure Precip Precip Rate Daily Precip Total
09:10 AM 32.5°F0.3°C 31.2°F-0.4°C 95% Calm Calm -- 30.22 in1023.4 mb - 0.00 in0.0 mm 0.00 in0.0 mm
09:20 AM 32.5°F0.3°C 31.2°F-0.4°C 95% Calm Calm -- 30.22 in1023.4 mb - 0.00 in0.0 mm 0.00 in0.0 mm
09:30 AM 32.5°F0.3°C 31.2°F-0.4°C 95% Calm Calm -- 30.23 in1023.7 mb - 0.00 in0.0 mm 0.00 in0.0 mm
09:40 AM 32.5°F0.3°C 31.2°F-0.4°C 95% Calm Calm -- 30.24 in1024.0 mb - 0.00 in0.0 mm 0.00 in0.0 mm
09:50 AM 32.6°F0.3°C 31.3°F-0.4°C 95% Calm Calm -- 30.24 in1024.0 mb - 0.00 in0.0 mm 0.00 in0.0 mm
10:00 AM 32.7°F0.4°C 31.4°F-0.3°C 95% Calm Calm -- 30.24 in1024.0 mb - 0.00 in0.0 mm 0.00 in0.0 mm
10:10 AM 32.9°F0.5°C 31.6°F-0.2°C 95% Calm Calm -- 30.24 in1024.0 mb - 0.00 in0.0 mm 0.00 in0.0 mm
10:20 AM 33.2°F0.7°C 31.9°F-0.1°C 95% Calm Calm -- 30.23 in1023.7 mb - 0.00 in0.0 mm 0.00 in0.0 mm
10:30 AM 33.5°F0.8°C 32.2°F0.1°C 95% Calm Calm -- 30.23 in1023.7 mb - 0.00 in0.0 mm 0.00 in0.0 mm
10:40 AM 33.9°F1.1°C 32.6°F0.3°C 95% Calm Calm -- 30.23 in1023.7 mb - 0.00 in0.0 mm 0.00 in0.0 mm
10:50 AM 34.2°F1.2°C 32.9°F0.5°C 95% Calm Calm -- 30.23 in1023.7 mb - 0.00 in0.0 mm 0.00 in0.0 mm
11:00 AM 34.4°F1.3°C 33.1°F0.6°C 95% Calm Calm -- 30.23 in1023.7 mb - 0.00 in0.0 mm 0.00 in0.0 mm
11:10 AM 34.8°F1.6°C 33.5°F0.8°C 95% Calm Calm -- 30.23 in1023.7 mb - 0.01 in0.3 mm 0.01 in0.3 mm
11:20 AM 35.1°F1.7°C 33.8°F1.0°C 95% Calm Calm -- 30.23 in1023.7 mb - 0.00 in0.0 mm 0.01 in0.3 mm
11:30 AM 35.5°F1.9°C 34.2°F1.2°C 95% Calm Calm -- 30.22 in1023.4 mb - 0.00 in0.0 mm 0.01 in0.3 mm
11:40 AM 35.7°F2.1°C 34.4°F1.3°C 95% Calm Calm -- 30.23 in1023.7 mb - 0.00 in0.0 mm 0.01 in0.3 mm
11:50 AM 35.9°F2.2°C 34.6°F1.4°C 95% Calm Calm -- 30.22 in1023.4 mb - 0.00 in0.0 mm 0.01 in0.3 mm
12:00 PM 36.2°F2.3°C 34.9°F1.6°C 95% Calm Calm -- 30.22 in1023.4 mb - 0.00 in0.0 mm 0.01 in0.3 mm
12:10 PM 36.5°F2.5°C 35.2°F1.8°C 95% Calm Calm -- 30.21 in1023.0 mb - 0.00 in0.0 mm 0.01 in0.3 mm
12:20 PM 36.4°F2.4°C 35.1°F1.7°C 95% Calm Calm -- 30.22 in1023.4 mb - 0.00 in0.0 mm 0.01 in0.3 mm
12:30 PM 36.5°F2.5°C 35.2°F1.8°C 95% Calm Calm -- 30.22 in1023.4 mb - 0.00 in0.0 mm 0.01 in0.3 mm
12:40 PM 36.6°F2.6°C 35.3°F1.8°C 95% Calm Calm -- 30.22 in1023.4 mb - 0.00 in0.0 mm 0.01 in0.3 mm
12:50 PM 36.6°F2.6°C 35.3°F1.8°C 95% Calm Calm -- 30.21 in1023.0 mb - 0.00 in0.0 mm 0.01 in0.3 mm
01:00 PM 37.0°F2.8°C 35.7°F2.1°C 95% Calm Calm -- 30.21 in1023.0 mb - 0.00 in0.0 mm 0.01 in0.3 mm
01:10 PM 37.0°F2.8°C 35.7°F2.1°C 95% Calm Calm -- 30.21 in1023.0 mb - 0.00 in0.0 mm 0.01 in0.3 mm
01:20 PM 37.1°F2.8°C 35.8°F2.1°C 95% Calm Calm -- 30.20 in1022.7 mb - 0.00 in0.0 mm 0.01 in0.3 mm
01:30 PM 37.4°F3.0°C 36.1°F2.3°C 95% Calm Calm -- 30.19 in1022.4 mb - 0.00 in0.0 mm 0.01 in0.3 mm
01:40 PM 37.3°F2.9°C 36.0°F2.2°C 95% Calm Calm -- 30.19 in1022.4 mb - 0.00 in0.0 mm 0.01 in0.3 mm
01:50 PM 37.3°F2.9°C 36.0°F2.2°C 95% Calm Calm -- 30.19 in1022.4 mb - 0.00 in0.0 mm 0.01 in0.3 mm
02:00 PM 37.4°F3.0°C 35.8°F2.1°C 94% Calm Calm -- 30.19 in1022.4 mb - 0.00 in0.0 mm 0.01 in0.3 mm
02:10 PM 37.7°F3.2°C 36.1°F2.3°C 94% Calm Calm -- 30.19 in1022.4 mb - 0.00 in0.0 mm 0.01 in0.3 mm
02:20 PM 37.9°F3.3°C 36.3°F2.4°C 94% Calm Calm -- 30.19 in1022.4 mb - 0.00 in0.0 mm 0.01 in0.3 mm
02:30 PM 38.0°F3.3°C 36.4°F2.4°C 94% Calm Calm -- 30.19 in1022.4 mb - 0.00 in0.0 mm 0.01 in0.3 mm
02:40 PM 38.1°F3.4°C 36.3°F2.4°C 93% Calm Calm -- 30.20 in1022.7 mb - 0.00 in0.0 mm 0.01 in0.3 mm
02:50 PM 38.1°F3.4°C 36.0°F2.2°C 92% Calm Calm -- 30.19 in1022.4 mb - 0.00 in0.0 mm 0.01 in0.3 mm
03:00 PM 38.2°F3.4°C 36.1°F2.3°C 92% Calm Calm -- 30.19 in1022.4 mb - 0.00 in0.0 mm 0.01 in0.3 mm
03:10 PM 38.2°F3.4°C 35.8°F2.1°C 91% Calm Calm -- 30.19 in1022.4 mb - 0.00 in0.0 mm 0.01 in0.3 mm
03:20 PM 38.3°F3.5°C 35.7°F2.1°C 90% Calm Calm -- 30.19 in1022.4 mb - 0.00 in0.0 mm 0.01 in0.3 mm
03:30 PM 38.4°F3.6°C 35.7°F2.1°C 90% Calm Calm -- 30.19 in1022.4 mb - 0.00 in0.0 mm 0.01 in0.3 mm
03:40 PM 38.4°F3.6°C 35.4°F1.9°C 89% Calm Calm -- 30.18 in1022.0 mb - 0.00 in0.0 mm 0.01 in0.3 mm
03:50 PM 38.4°F3.6°C 35.4°F1.9°C 89% Calm Calm -- 30.18 in1022.0 mb - 0.00 in0.0 mm 0.01 in0.3 mm
04:00 PM 38.3°F3.5°C 35.1°F1.7°C 88% Calm Calm -- 30.18 in1022.0 mb - 0.00 in0.0 mm 0.01 in0.3 mm
04:10 PM 38.2°F3.4°C 35.0°F1.7°C 88% Calm Calm -- 30.18 in1022.0 mb - 0.00 in0.0 mm 0.01 in0.3 mm
04:20 PM 38.2°F3.4°C 35.0°F1.7°C 88% Calm Calm -- 30.18 in1022.0 mb - 0.00 in0.0 mm 0.01 in0.3 mm
04:30 PM 38.1°F3.4°C 34.9°F1.6°C 88% Calm Calm -- 30.18 in1022.0 mb - 0.00 in0.0 mm 0.01 in0.3 mm
04:40 PM 38.0°F3.3°C 34.5°F1.4°C 87% Calm Calm -- 30.19 in1022.4 mb - 0.00 in0.0 mm 0.01 in0.3 mm
04:50 PM 37.9°F3.3°C 34.4°F1.3°C 87% Calm Calm -- 30.20 in1022.7 mb - 0.00 in0.0 mm 0.01 in0.3 mm
05:00 PM 37.7°F3.2°C 34.2°F1.2°C 87% Calm Calm -- 30.21 in1023.0 mb - 0.00 in0.0 mm 0.01 in0.3 mm
05:10 PM 37.6°F3.1°C 34.1°F1.2°C 87% Calm Calm -- 30.20 in1022.7 mb - 0.00 in0.0 mm 0.01 in0.3 mm